sensor_id;sensor_type;location;lat;lon;timestamp;pressure;altitude;pressure_sealevel;temperature
82297;BMP280;71899;51.992;8.648;2024-03-02T00:00:00;98945.19;;;7.57
82297;BMP280;71899;51.992;8.648;2024-03-02T00:02:27;98940.44;;;7.51
82297;BMP280;71899;51.992;8.648;2024-03-02T00:04:52;98934.63;;;7.47
82297;BMP280;71899;51.992;8.648;2024-03-02T00:07:17;98929.72;;;7.43
82297;BMP280;71899;51.992;8.648;2024-03-02T00:09:43;98942.94;;;7.53
82297;BMP280;71899;51.992;8.648;2024-03-02T00:12:11;98948.94;;;7.53
82297;BMP280;71899;51.992;8.648;2024-03-02T00:14:40;98944.69;;;7.52
82297;BMP280;71899;51.992;8.648;2024-03-02T00:17:17;98946.56;;;7.50
82297;BMP280;71899;51.992;8.648;2024-03-02T00:19:46;98950.84;;;7.51
82297;BMP280;71899;51.992;8.648;2024-03-02T00:22:11;98944.69;;;7.52
82297;BMP280;71899;51.992;8.648;2024-03-02T00:24:37;98943.34;;;7.46
82297;BMP280;71899;51.992;8.648;2024-03-02T00:27:04;98942.72;;;7.43
82297;BMP280;71899;51.992;8.648;2024-03-02T00:29:30;98945.97;;;7.34
82297;BMP280;71899;51.992;8.648;2024-03-02T00:31:57;98940.56;;;7.37
82297;BMP280;71899;51.992;8.648;2024-03-02T00:34:23;98934.63;;;7.35
82297;BMP280;71899;51.992;8.648;2024-03-02T00:36:48;98934.22;;;7.41
82297;BMP280;71899;51.992;8.648;2024-03-02T00:39:15;98929.56;;;7.33
82297;BMP280;71899;51.992;8.648;2024-03-02T00:41:42;98924.34;;;7.33
82297;BMP280;71899;51.992;8.648;2024-03-02T00:44:09;98920.91;;;7.33
82297;BMP280;71899;51.992;8.648;2024-03-02T00:46:37;98927.25;;;7.41
82297;BMP280;71899;51.992;8.648;2024-03-02T00:49:04;98924.97;;;7.37
82297;BMP280;71899;51.992;8.648;2024-03-02T00:51:31;98918.84;;;7.38
82297;BMP280;71899;51.992;8.648;2024-03-02T00:54:05;98918.94;;;7.36
82297;BMP280;71899;51.992;8.648;2024-03-02T00:56:32;98919.78;;;7.37
82297;BMP280;71899;51.992;8.648;2024-03-02T00:58:57;98908.00;;;7.31
82297;BMP280;71899;51.992;8.648;2024-03-02T01:01:23;98905.31;;;7.33
82297;BMP280;71899;51.992;8.648;2024-03-02T01:03:48;98908.97;;;7.30
82297;BMP280;71899;51.992;8.648;2024-03-02T01:06:15;98911.66;;;7.29
82297;BMP280;71899;51.992;8.648;2024-03-02T01:08:43;98908.84;;;7.32
82297;BMP280;71899;51.992;8.648;2024-03-02T01:11:08;98914.38;;;7.27
82297;BMP280;71899;51.992;8.648;2024-03-02T01:13:34;98909.59;;;7.21
82297;BMP280;71899;51.992;8.648;2024-03-02T01:16:01;98910.66;;;7.19
82297;BMP280;71899;51.992;8.648;2024-03-02T01:18:26;98898.31;;;7.10
82297;BMP280;71899;51.992;8.648;2024-03-02T01:20:52;98910.25;;;7.12
82297;BMP280;71899;51.992;8.648;2024-03-02T01:23:20;98915.88;;;7.06
82297;BMP280;71899;51.992;8.648;2024-03-02T01:25:47;98911.47;;;7.07
82297;BMP280;71899;51.992;8.648;2024-03-02T01:28:12;98903.81;;;7.05
82297;BMP280;71899;51.992;8.648;2024-03-02T01:30:38;98917.75;;;7.17
82297;BMP280;71899;51.992;8.648;2024-03-02T01:33:03;98915.13;;;7.17
82297;BMP280;71899;51.992;8.648;2024-03-02T01:35:31;98929.78;;;7.18
82297;BMP280;71899;51.992;8.648;2024-03-02T01:37:56;98922.72;;;7.20
82297;BMP280;71899;51.992;8.648;2024-03-02T01:40:21;98923.47;;;7.09
82297;BMP280;71899;51.992;8.648;2024-03-02T01:42:47;98915.75;;;7.08
82297;BMP280;71899;51.992;8.648;2024-03-02T01:45:12;98909.75;;;6.94
82297;BMP280;71899;51.992;8.648;2024-03-02T01:47:37;98920.34;;;6.91
82297;BMP280;71899;51.992;8.648;2024-03-02T01:50:03;98914.63;;;6.86
82297;BMP280;71899;51.992;8.648;2024-03-02T01:52:28;98912.53;;;6.79
82297;BMP280;71899;51.992;8.648;2024-03-02T01:54:54;98903.91;;;6.78
82297;BMP280;71899;51.992;8.648;2024-03-02T01:57:20;98903.72;;;6.81
82297;BMP280;71899;51.992;8.648;2024-03-02T01:59:46;98899.75;;;6.88
82297;BMP280;71899;51.992;8.648;2024-03-02T02:02:16;98903.00;;;6.79
82297;BMP280;71899;51.992;8.648;2024-03-02T02:04:41;98898.50;;;6.81
82297;BMP280;71899;51.992;8.648;2024-03-02T02:07:07;98893.63;;;6.89
82297;BMP280;71899;51.992;8.648;2024-03-02T02:09:32;98889.09;;;6.80
82297;BMP280;71899;51.992;8.648;2024-03-02T02:11:58;98890.63;;;6.83
82297;BMP280;71899;51.992;8.648;2024-03-02T02:14:23;98885.84;;;6.89
82297;BMP280;71899;51.992;8.648;2024-03-02T02:16:48;98891.13;;;7.01
82297;BMP280;71899;51.992;8.648;2024-03-02T02:19:14;98889.47;;;6.99
82297;BMP280;71899;51.992;8.648;2024-03-02T02:21:42;98881.06;;;7.09
82297;BMP280;71899;51.992;8.648;2024-03-02T02:24:08;98874.19;;;7.08
82297;BMP280;71899;51.992;8.648;2024-03-02T02:26:34;98871.41;;;6.98
82297;BMP280;71899;51.992;8.648;2024-03-02T02:29:00;98869.19;;;7.05
82297;BMP280;71899;51.992;8.648;2024-03-02T02:31:25;98864.44;;;6.98
82297;BMP280;71899;51.992;8.648;2024-03-02T02:33:50;98856.75;;;6.97
82297;BMP280;71899;51.992;8.648;2024-03-02T02:36:16;98861.41;;;7.05
82297;BMP280;71899;51.992;8.648;2024-03-02T02:38:44;98854.13;;;7.10
82297;BMP280;71899;51.992;8.648;2024-03-02T02:41:11;98858.28;;;7.12
82297;BMP280;71899;51.992;8.648;2024-03-02T02:43:37;98851.63;;;7.08
82297;BMP280;71899;51.992;8.648;2024-03-02T02:46:02;98847.56;;;7.17
82297;BMP280;71899;51.992;8.648;2024-03-02T02:48:28;98837.72;;;7.09
82297;BMP280;71899;51.992;8.648;2024-03-02T02:50:53;98833.22;;;7.11
82297;BMP280;71899;51.992;8.648;2024-03-02T02:53:18;98834.59;;;7.17
82297;BMP280;71899;51.992;8.648;2024-03-02T02:55:44;98832.00;;;7.17
82297;BMP280;71899;51.992;8.648;2024-03-02T02:58:09;98824.19;;;7.17
82297;BMP280;71899;51.992;8.648;2024-03-02T03:00:35;98821.75;;;7.26
82297;BMP280;71899;51.992;8.648;2024-03-02T03:03:01;98826.97;;;7.26
82297;BMP280;71899;51.992;8.648;2024-03-02T03:05:27;98829.44;;;7.28
82297;BMP280;71899;51.992;8.648;2024-03-02T03:07:52;98821.63;;;7.28
82297;BMP280;71899;51.992;8.648;2024-03-02T03:10:18;98816.56;;;7.26
82297;BMP280;71899;51.992;8.648;2024-03-02T03:12:43;98817.63;;;7.24
82297;BMP280;71899;51.992;8.648;2024-03-02T03:15:09;98825.41;;;7.24
82297;BMP280;71899;51.992;8.648;2024-03-02T03:17:35;98820.75;;;7.16
82297;BMP280;71899;51.992;8.648;2024-03-02T03:20:02;98817.00;;;7.20
82297;BMP280;71899;51.992;8.648;2024-03-02T03:22:29;98823.00;;;7.21
82297;BMP280;71899;51.992;8.648;2024-03-02T03:24:55;98816.16;;;7.20
82297;BMP280;71899;51.992;8.648;2024-03-02T03:27:20;98830.19;;;7.17
82297;BMP280;71899;51.992;8.648;2024-03-02T03:29:45;98824.50;;;7.12
82297;BMP280;71899;51.992;8.648;2024-03-02T03:32:10;98823.88;;;7.09
82297;BMP280;71899;51.992;8.648;2024-03-02T03:34:36;98821.28;;;7.09
82297;BMP280;71899;51.992;8.648;2024-03-02T03:37:02;98829.25;;;7.18
82297;BMP280;71899;51.992;8.648;2024-03-02T03:39:27;98819.59;;;7.20
82297;BMP280;71899;51.992;8.648;2024-03-02T03:41:53;98816.16;;;7.20
82297;BMP280;71899;51.992;8.648;2024-03-02T03:44:19;98814.19;;;7.23
82297;BMP280;71899;51.992;8.648;2024-03-02T03:46:44;98818.78;;;7.20
82297;BMP280;71899;51.992;8.648;2024-03-02T03:49:09;98822.47;;;7.28
82297;BMP280;71899;51.992;8.648;2024-03-02T03:51:35;98821.75;;;7.26
82297;BMP280;71899;51.992;8.648;2024-03-02T03:54:00;98818.09;;;7.29
82297;BMP280;71899;51.992;8.648;2024-03-02T03:56:26;98820.84;;;7.27
82297;BMP280;71899;51.992;8.648;2024-03-02T03:58:51;98811.75;;;7.33
82297;BMP280;71899;51.992;8.648;2024-03-02T04:01:17;98813.41;;;7.34
82297;BMP280;71899;51.992;8.648;2024-03-02T04:03:43;98817.66;;;7.35
82297;BMP280;71899;51.992;8.648;2024-03-02T04:06:08;98816.50;;;7.39
82297;BMP280;71899;51.992;8.648;2024-03-02T04:08:33;98819.22;;;7.37
82297;BMP280;71899;51.992;8.648;2024-03-02T04:10:59;98833.13;;;7.49
82297;BMP280;71899;51.992;8.648;2024-03-02T04:13:24;98825.31;;;7.49
82297;BMP280;71899;51.992;8.648;2024-03-02T04:15:49;98830.84;;;7.44
82297;BMP280;71899;51.992;8.648;2024-03-02T04:18:15;98825.25;;;7.38
82297;BMP280;71899;51.992;8.648;2024-03-02T04:20:40;98829.50;;;7.39
82297;BMP280;71899;51.992;8.648;2024-03-02T04:23:08;98834.75;;;7.26
82297;BMP280;71899;51.992;8.648;2024-03-02T04:25:33;98832.88;;;7.28
82297;BMP280;71899;51.992;8.648;2024-03-02T04:28:00;98830.50;;;7.25
82297;BMP280;71899;51.992;8.648;2024-03-02T04:30:25;98825.50;;;7.22
82297;BMP280;71899;51.992;8.648;2024-03-02T04:32:51;98828.09;;;7.22
82297;BMP280;71899;51.992;8.648;2024-03-02T04:35:17;98834.47;;;7.18
82297;BMP280;71899;51.992;8.648;2024-03-02T04:37:42;98829.38;;;7.17
82297;BMP280;71899;51.992;8.648;2024-03-02T04:40:08;98831.38;;;7.13
82297;BMP280;71899;51.992;8.648;2024-03-02T04:42:34;98831.38;;;7.13
82297;BMP280;71899;51.992;8.648;2024-03-02T04:45:00;98828.47;;;7.05
82297;BMP280;71899;51.992;8.648;2024-03-02T04:47:25;98831.69;;;7.09
82297;BMP280;71899;51.992;8.648;2024-03-02T04:49:51;98833.00;;;7.14
82297;BMP280;71899;51.992;8.648;2024-03-02T04:52:16;98834.91;;;7.12
82297;BMP280;71899;51.992;8.648;2024-03-02T04:54:42;98852.88;;;7.15
82297;BMP280;71899;51.992;8.648;2024-03-02T04:57:26;98852.88;;;7.15
82297;BMP280;71899;51.992;8.648;2024-03-02T04:59:51;98849.03;;;7.08
82297;BMP280;71899;51.992;8.648;2024-03-02T05:02:16;98847.50;;;7.06
82297;BMP280;71899;51.992;8.648;2024-03-02T05:04:42;98853.72;;;7.03
82297;BMP280;71899;51.992;8.648;2024-03-02T05:07:07;98854.38;;;6.94
82297;BMP280;71899;51.992;8.648;2024-03-02T05:09:32;98855.06;;;6.96
82297;BMP280;71899;51.992;8.648;2024-03-02T05:11:58;98853.09;;;6.99
82297;BMP280;71899;51.992;8.648;2024-03-02T05:14:54;98859.75;;;7.04
82297;BMP280;71899;51.992;8.648;2024-03-02T05:17:20;98869.41;;;7.02
82297;BMP280;71899;51.992;8.648;2024-03-02T05:19:45;98863.78;;;7.08
82297;BMP280;71899;51.992;8.648;2024-03-02T05:22:10;98872.09;;;7.13
82297;BMP280;71899;51.992;8.648;2024-03-02T05:24:35;98871.38;;;7.11
82297;BMP280;71899;51.992;8.648;2024-03-02T05:27:02;98873.47;;;7.06
82297;BMP280;71899;51.992;8.648;2024-03-02T05:29:27;98874.72;;;7.00
82297;BMP280;71899;51.992;8.648;2024-03-02T05:31:52;98869.72;;;6.97
82297;BMP280;71899;51.992;8.648;2024-03-02T05:34:17;98869.25;;;6.92
82297;BMP280;71899;51.992;8.648;2024-03-02T05:36:43;98875.97;;;6.94
82297;BMP280;71899;51.992;8.648;2024-03-02T05:39:09;98881.88;;;6.96
82297;BMP280;71899;51.992;8.648;2024-03-02T05:41:35;98877.56;;;6.84
82297;BMP280;71899;51.992;8.648;2024-03-02T05:44:01;98888.56;;;6.88
82297;BMP280;71899;51.992;8.648;2024-03-02T05:46:27;98878.69;;;6.80
82297;BMP280;71899;51.992;8.648;2024-03-02T05:48:52;98876.94;;;6.81
82297;BMP280;71899;51.992;8.648;2024-03-02T05:51:17;98870.06;;;6.80
82297;BMP280;71899;51.992;8.648;2024-03-02T05:53:43;98879.72;;;6.78
82297;BMP280;71899;51.992;8.648;2024-03-02T05:56:08;98876.00;;;6.69
82297;BMP280;71899;51.992;8.648;2024-03-02T05:58:34;98872.13;;;6.75
82297;BMP280;71899;51.992;8.648;2024-03-02T06:01:28;98867.78;;;6.88
82297;BMP280;71899;51.992;8.648;2024-03-02T06:03:57;98881.69;;;6.87
82297;BMP280;71899;51.992;8.648;2024-03-02T06:06:24;98874.75;;;6.87
82297;BMP280;71899;51.992;8.648;2024-03-02T06:08:49;98875.13;;;6.81
82297;BMP280;71899;51.992;8.648;2024-03-02T06:11:15;98882.94;;;6.81
82297;BMP280;71899;51.992;8.648;2024-03-02T06:13:40;98889.28;;;6.90
82297;BMP280;71899;51.992;8.648;2024-03-02T06:16:06;98888.56;;;6.88
82297;BMP280;71899;51.992;8.648;2024-03-02T06:18:31;98891.78;;;6.91
82297;BMP280;71899;51.992;8.648;2024-03-02T06:20:56;98888.31;;;7.04
82297;BMP280;71899;51.992;8.648;2024-03-02T06:23:22;98887.06;;;6.96
82297;BMP280;71899;51.992;8.648;2024-03-02T06:25:47;98890.09;;;7.03
82297;BMP280;71899;51.992;8.648;2024-03-02T06:28:12;98892.06;;;6.99
82297;BMP280;71899;51.992;8.648;2024-03-02T06:30:41;98902.25;;;7.15
82297;BMP280;71899;51.992;8.648;2024-03-02T06:33:06;98906.72;;;7.13
82297;BMP280;71899;51.992;8.648;2024-03-02T06:35:31;98911.28;;;7.22
82297;BMP280;71899;51.992;8.648;2024-03-02T06:37:57;98908.16;;;7.17
82297;BMP280;71899;51.992;8.648;2024-03-02T06:40:22;98905.97;;;7.24
82297;BMP280;71899;51.992;8.648;2024-03-02T06:42:47;98914.69;;;7.23
82297;BMP280;71899;51.992;8.648;2024-03-02T06:45:13;98910.00;;;7.28
82297;BMP280;71899;51.992;8.648;2024-03-02T06:47:38;98911.44;;;7.32
82297;BMP280;71899;51.992;8.648;2024-03-02T06:50:03;98912.47;;;7.42
82297;BMP280;71899;51.992;8.648;2024-03-02T06:52:29;98915.03;;;7.55
82297;BMP280;71899;51.992;8.648;2024-03-02T06:54:54;98922.38;;;7.73
82297;BMP280;71899;51.992;8.648;2024-03-02T06:57:20;98925.03;;;7.84
82297;BMP280;71899;51.992;8.648;2024-03-02T06:59:46;98932.06;;;7.95
82297;BMP280;71899;51.992;8.648;2024-03-02T07:02:11;98926.91;;;7.82
82297;BMP280;71899;51.992;8.648;2024-03-02T07:04:37;98928.50;;;7.72
82297;BMP280;71899;51.992;8.648;2024-03-02T07:07:03;98923.00;;;7.64
82297;BMP280;71899;51.992;8.648;2024-03-02T07:09:28;98932.94;;;7.59
82297;BMP280;71899;51.992;8.648;2024-03-02T07:11:53;98932.59;;;7.64
82297;BMP280;71899;51.992;8.648;2024-03-02T07:14:18;98934.47;;;7.62
82297;BMP280;71899;51.992;8.648;2024-03-02T07:16:44;98935.19;;;7.64
82297;BMP280;71899;51.992;8.648;2024-03-02T07:19:09;98936.31;;;7.72
82297;BMP280;71899;51.992;8.648;2024-03-02T07:21:34;98940.66;;;7.84
82297;BMP280;71899;51.992;8.648;2024-03-02T07:24:00;98936.00;;;7.77
82297;BMP280;71899;51.992;8.648;2024-03-02T07:26:28;98933.63;;;7.74
82297;BMP280;71899;51.992;8.648;2024-03-02T07:28:55;98937.44;;;7.81
82297;BMP280;71899;51.992;8.648;2024-03-02T07:31:20;98944.06;;;7.85
82297;BMP280;71899;51.992;8.648;2024-03-02T07:33:46;98947.63;;;7.84
82297;BMP280;71899;51.992;8.648;2024-03-02T07:36:11;98950.63;;;7.90
82297;BMP280;71899;51.992;8.648;2024-03-02T07:38:37;98950.72;;;7.89
82297;BMP280;71899;51.992;8.648;2024-03-02T07:41:02;98946.13;;;7.92
82297;BMP280;71899;51.992;8.648;2024-03-02T07:43:29;98951.50;;;8.02
82297;BMP280;71899;51.992;8.648;2024-03-02T07:45:55;98950.69;;;8.02
82297;BMP280;71899;51.992;8.648;2024-03-02T07:48:21;98950.22;;;8.08
82297;BMP280;71899;51.992;8.648;2024-03-02T07:50:46;98944.63;;;8.25
82297;BMP280;71899;51.992;8.648;2024-03-02T07:53:11;98957.06;;;8.45
82297;BMP280;71899;51.992;8.648;2024-03-02T07:55:37;98960.09;;;8.74
82297;BMP280;71899;51.992;8.648;2024-03-02T07:58:02;98951.13;;;9.00
82297;BMP280;71899;51.992;8.648;2024-03-02T08:00:28;98953.75;;;9.11
82297;BMP280;71899;51.992;8.648;2024-03-02T08:02:53;98959.19;;;8.97
82297;BMP280;71899;51.992;8.648;2024-03-02T08:05:19;98954.94;;;9.07
82297;BMP280;71899;51.992;8.648;2024-03-02T08:07:45;98954.47;;;9.24
82297;BMP280;71899;51.992;8.648;2024-03-02T08:10:11;98960.16;;;9.52
82297;BMP280;71899;51.992;8.648;2024-03-02T08:12:37;98955.63;;;9.76
82297;BMP280;71899;51.992;8.648;2024-03-02T08:15:02;98953.00;;;9.76
82297;BMP280;71899;51.992;8.648;2024-03-02T08:17:27;98957.91;;;10.12
82297;BMP280;71899;51.992;8.648;2024-03-02T08:19:53;98954.06;;;10.27
82297;BMP280;71899;51.992;8.648;2024-03-02T08:22:19;98950.47;;;10.39
82297;BMP280;71899;51.992;8.648;2024-03-02T08:24:44;98947.34;;;10.45
82297;BMP280;71899;51.992;8.648;2024-03-02T08:27:10;98945.88;;;10.32
82297;BMP280;71899;51.992;8.648;2024-03-02T08:29:35;98952.41;;;10.37
82297;BMP280;71899;51.992;8.648;2024-03-02T08:32:01;98945.53;;;10.57
82297;BMP280;71899;51.992;8.648;2024-03-02T08:34:26;98948.03;;;10.79
82297;BMP280;71899;51.992;8.648;2024-03-02T08:36:51;98957.78;;;10.98
82297;BMP280;71899;51.992;8.648;2024-03-02T08:39:17;98956.91;;;11.18
82297;BMP280;71899;51.992;8.648;2024-03-02T08:41:45;98957.13;;;11.36
82297;BMP280;71899;51.992;8.648;2024-03-02T08:44:12;98959.66;;;11.47
82297;BMP280;71899;51.992;8.648;2024-03-02T08:46:37;98965.34;;;11.52
82297;BMP280;71899;51.992;8.648;2024-03-02T08:49:03;98965.03;;;11.95
82297;BMP280;71899;51.992;8.648;2024-03-02T08:51:28;98966.88;;;12.04
82297;BMP280;71899;51.992;8.648;2024-03-02T08:53:53;98965.59;;;11.89
82297;BMP280;71899;51.992;8.648;2024-03-02T08:56:19;98963.84;;;12.09
82297;BMP280;71899;51.992;8.648;2024-03-02T08:58:45;98961.66;;;12.52
82297;BMP280;71899;51.992;8.648;2024-03-02T09:01:11;98967.88;;;12.51
82297;BMP280;71899;51.992;8.648;2024-03-02T09:03:37;98964.97;;;12.35
82297;BMP280;71899;51.992;8.648;2024-03-02T09:06:02;98954.09;;;12.30
82297;BMP280;71899;51.992;8.648;2024-03-02T09:08:28;98953.66;;;12.54
82297;BMP280;71899;51.992;8.648;2024-03-02T09:10:54;98956.81;;;12.38
82297;BMP280;71899;51.992;8.648;2024-03-02T09:13:20;98960.13;;;12.59
82297;BMP280;71899;51.992;8.648;2024-03-02T09:15:46;98956.06;;;13.03
82297;BMP280;71899;51.992;8.648;2024-03-02T09:18:11;98956.78;;;12.96
82297;BMP280;71899;51.992;8.648;2024-03-02T09:20:36;98961.84;;;13.07
82297;BMP280;71899;51.992;8.648;2024-03-02T09:23:02;98954.81;;;13.26
82297;BMP280;71899;51.992;8.648;2024-03-02T09:25:27;98956.50;;;13.45
82297;BMP280;71899;51.992;8.648;2024-03-02T09:27:53;98957.56;;;13.25
82297;BMP280;71899;51.992;8.648;2024-03-02T09:30:18;98959.19;;;13.35
82297;BMP280;71899;51.992;8.648;2024-03-02T09:32:43;98961.72;;;12.99
82297;BMP280;71899;51.992;8.648;2024-03-02T09:35:09;98968.63;;;13.19
82297;BMP280;71899;51.992;8.648;2024-03-02T09:37:35;98951.63;;;13.23
82297;BMP280;71899;51.992;8.648;2024-03-02T09:40:00;98961.59;;;13.00
82297;BMP280;71899;51.992;8.648;2024-03-02T09:42:26;98956.78;;;12.96
82297;BMP280;71899;51.992;8.648;2024-03-02T09:44:52;98954.69;;;13.18
82297;BMP280;71899;51.992;8.648;2024-03-02T09:47:17;98949.06;;;12.94
82297;BMP280;71899;51.992;8.648;2024-03-02T09:49:43;98959.56;;;12.84
82297;BMP280;71899;51.992;8.648;2024-03-02T09:52:10;98956.25;;;13.38
82297;BMP280;71899;51.992;8.648;2024-03-02T09:54:35;98959.34;;;13.24
82297;BMP280;71899;51.992;8.648;2024-03-02T09:57:01;98946.81;;;13.55
82297;BMP280;71899;51.992;8.648;2024-03-02T09:59:27;98962.75;;;13.44
82297;BMP280;71899;51.992;8.648;2024-03-02T10:02:01;98954.34;;;13.68
82297;BMP280;71899;51.992;8.648;2024-03-02T10:04:27;98958.59;;;13.41
82297;BMP280;71899;51.992;8.648;2024-03-02T10:07:15;98963.41;;;13.46
82297;BMP280;71899;51.992;8.648;2024-03-02T10:09:43;98954.81;;;13.81
82297;BMP280;71899;51.992;8.648;2024-03-02T10:12:10;98964.09;;;14.20
82297;BMP280;71899;51.992;8.648;2024-03-02T10:14:40;98960.66;;;14.20
82297;BMP280;71899;51.992;8.648;2024-03-02T10:17:10;98962.09;;;14.32
82297;BMP280;71899;51.992;8.648;2024-03-02T10:19:37;98965.97;;;14.10
82297;BMP280;71899;51.992;8.648;2024-03-02T10:22:07;98962.00;;;14.06
82297;BMP280;71899;51.992;8.648;2024-03-02T10:24:43;98968.88;;;13.89
82297;BMP280;71899;51.992;8.648;2024-03-02T10:27:25;98958.63;;;14.14
82297;BMP280;71899;51.992;8.648;2024-03-02T10:29:51;98965.25;;;14.18
82297;BMP280;71899;51.992;8.648;2024-03-02T10:32:16;98958.97;;;14.46
82297;BMP280;71899;51.992;8.648;2024-03-02T10:34:44;98951.38;;;14.61
82297;BMP280;71899;51.992;8.648;2024-03-02T10:37:13;98950.03;;;14.57
82297;BMP280;71899;51.992;8.648;2024-03-02T10:39:40;98949.41;;;14.45
82297;BMP280;71899;51.992;8.648;2024-03-02T10:42:06;98956.66;;;14.43
82297;BMP280;71899;51.992;8.648;2024-03-02T10:44:33;98953.84;;;13.82
82297;BMP280;71899;51.992;8.648;2024-03-02T10:47:03;98957.75;;;13.78
82297;BMP280;71899;51.992;8.648;2024-03-02T10:49:30;98956.28;;;13.93
82297;BMP280;71899;51.992;8.648;2024-03-02T10:51:59;98953.88;;;14.45
82297;BMP280;71899;51.992;8.648;2024-03-02T10:54:25;98959.63;;;14.83
82297;BMP280;71899;51.992;8.648;2024-03-02T10:57:03;98955.75;;;15.21
82297;BMP280;71899;51.992;8.648;2024-03-02T10:59:34;98943.81;;;15.09
82297;BMP280;71899;51.992;8.648;2024-03-02T11:02:01;98950.66;;;14.94
82297;BMP280;71899;51.992;8.648;2024-03-02T11:04:28;98950.00;;;14.74
82297;BMP280;71899;51.992;8.648;2024-03-02T11:07:04;98956.72;;;14.69
82297;BMP280;71899;51.992;8.648;2024-03-02T11:09:33;98950.47;;;14.96
82297;BMP280;71899;51.992;8.648;2024-03-02T11:12:31;98950.94;;;15.17
82297;BMP280;71899;51.992;8.648;2024-03-02T11:14:58;98937.75;;;15.43
82297;BMP280;71899;51.992;8.648;2024-03-02T11:17:24;98946.94;;;15.38
82297;BMP280;71899;51.992;8.648;2024-03-02T11:19:50;98939.88;;;15.39
82297;BMP280;71899;51.992;8.648;2024-03-02T11:22:16;98940.31;;;15.94
82297;BMP280;71899;51.992;8.648;2024-03-02T11:24:49;98945.03;;;15.82
82297;BMP280;71899;51.992;8.648;2024-03-02T11:32:57;98943.09;;;14.99
82297;BMP280;71899;51.992;8.648;2024-03-02T11:35:25;98945.13;;;15.05
82297;BMP280;71899;51.992;8.648;2024-03-02T11:37:51;98937.19;;;15.23
82297;BMP280;71899;51.992;8.648;2024-03-02T11:40:22;98940.84;;;15.38
82297;BMP280;71899;51.992;8.648;2024-03-02T11:42:47;98943.63;;;15.28
82297;BMP280;71899;51.992;8.648;2024-03-02T11:45:16;98938.69;;;15.59
82297;BMP280;71899;51.992;8.648;2024-03-02T11:47:46;98932.53;;;15.93
82297;BMP280;71899;51.992;8.648;2024-03-02T11:50:15;98923.28;;;15.72
82297;BMP280;71899;51.992;8.648;2024-03-02T11:52:41;98938.03;;;15.06
82297;BMP280;71899;51.992;8.648;2024-03-02T11:55:07;98940.53;;;15.07
82297;BMP280;71899;51.992;8.648;2024-03-02T11:57:35;98932.19;;;15.12
82297;BMP280;71899;51.992;8.648;2024-03-02T12:00:00;98942.66;;;15.37
82297;BMP280;71899;51.992;8.648;2024-03-02T12:02:31;98922.09;;;15.33
82297;BMP280;71899;51.992;8.648;2024-03-02T12:04:56;98933.75;;;15.30
82297;BMP280;71899;51.992;8.648;2024-03-02T12:07:23;98923.97;;;15.49
82297;BMP280;71899;51.992;8.648;2024-03-02T12:10:01;98922.63;;;15.45
82297;BMP280;71899;51.992;8.648;2024-03-02T12:12:27;98929.06;;;15.16
82297;BMP280;71899;51.992;8.648;2024-03-02T12:14:53;98928.56;;;15.47
82297;BMP280;71899;51.992;8.648;2024-03-02T12:17:22;98922.13;;;15.75
82297;BMP280;71899;51.992;8.648;2024-03-02T12:19:48;98921.47;;;15.81
82297;BMP280;71899;51.992;8.648;2024-03-02T12:22:14;98916.78;;;16.25
82297;BMP280;71899;51.992;8.648;2024-03-02T12:24:41;98917.13;;;16.46
82297;BMP280;71899;51.992;8.648;2024-03-02T12:27:06;98913.53;;;16.63
82297;BMP280;71899;51.992;8.648;2024-03-02T12:29:32;98911.03;;;16.86
82297;BMP280;71899;51.992;8.648;2024-03-02T12:31:57;98911.19;;;17.01
82297;BMP280;71899;51.992;8.648;2024-03-02T12:34:23;98909.56;;;16.83
82297;BMP280;71899;51.992;8.648;2024-03-02T12:36:49;98911.72;;;16.80
82297;BMP280;71899;51.992;8.648;2024-03-02T12:39:20;98919.78;;;16.62
82297;BMP280;71899;51.992;8.648;2024-03-02T12:41:49;98909.03;;;16.15
82297;BMP280;71899;51.992;8.648;2024-03-02T12:44:16;98912.03;;;16.36
82297;BMP280;71899;51.992;8.648;2024-03-02T12:46:41;98917.13;;;16.30
82297;BMP280;71899;51.992;8.648;2024-03-02T12:49:08;98908.31;;;15.89
82297;BMP280;71899;51.992;8.648;2024-03-02T12:51:35;98903.03;;;15.73
82297;BMP280;71899;51.992;8.648;2024-03-02T12:54:00;98898.88;;;15.70
82297;BMP280;71899;51.992;8.648;2024-03-02T12:56:26;98893.31;;;15.81
82297;BMP280;71899;51.992;8.648;2024-03-02T12:58:55;98900.88;;;15.68
82297;BMP280;71899;51.992;8.648;2024-03-02T13:01:21;98896.06;;;14.96
82297;BMP280;71899;51.992;8.648;2024-03-02T13:03:49;98898.63;;;14.88
82297;BMP280;71899;51.992;8.648;2024-03-02T13:06:16;98897.69;;;15.23
82297;BMP280;71899;51.992;8.648;2024-03-02T13:08:42;98885.31;;;15.49
82297;BMP280;71899;51.992;8.648;2024-03-02T13:11:07;98878.94;;;15.60
82297;BMP280;71899;51.992;8.648;2024-03-02T13:13:33;98890.47;;;15.59
82297;BMP280;71899;51.992;8.648;2024-03-02T13:16:00;98872.69;;;15.61
82297;BMP280;71899;51.992;8.648;2024-03-02T13:18:25;98876.19;;;15.77
82297;BMP280;71899;51.992;8.648;2024-03-02T13:20:51;98882.97;;;15.96
82297;BMP280;71899;51.992;8.648;2024-03-02T13:23:16;98876.72;;;16.05
82297;BMP280;71899;51.992;8.648;2024-03-02T13:25:42;98879.84;;;16.09
82297;BMP280;71899;51.992;8.648;2024-03-02T13:28:08;98865.88;;;16.57
82297;BMP280;71899;51.992;8.648;2024-03-02T13:30:34;98873.72;;;15.76
82297;BMP280;71899;51.992;8.648;2024-03-02T13:32:59;98872.03;;;15.67
82297;BMP280;71899;51.992;8.648;2024-03-02T13:35:24;98865.28;;;15.64
82297;BMP280;71899;51.992;8.648;2024-03-02T13:37:50;98870.44;;;15.40
82297;BMP280;71899;51.992;8.648;2024-03-02T13:40:16;98869.63;;;15.39
82297;BMP280;71899;51.992;8.648;2024-03-02T13:42:45;98854.09;;;15.62
82297;BMP280;71899;51.992;8.648;2024-03-02T13:45:12;98855.63;;;15.97
82297;BMP280;71899;51.992;8.648;2024-03-02T13:47:37;98852.66;;;15.92
82297;BMP280;71899;51.992;8.648;2024-03-02T13:50:03;98847.22;;;15.94
82297;BMP280;71899;51.992;8.648;2024-03-02T13:52:30;98836.53;;;16.27
82297;BMP280;71899;51.992;8.648;2024-03-02T13:54:55;98849.53;;;16.21
82297;BMP280;71899;51.992;8.648;2024-03-02T13:57:20;98855.31;;;16.16
82297;BMP280;71899;51.992;8.648;2024-03-02T13:59:46;98855.81;;;16.12
82297;BMP280;71899;51.992;8.648;2024-03-02T14:02:11;98854.16;;;16.51
82297;BMP280;71899;51.992;8.648;2024-03-02T14:04:37;98848.22;;;16.41
82297;BMP280;71899;51.992;8.648;2024-03-02T14:07:03;98856.66;;;16.69
82297;BMP280;71899;51.992;8.648;2024-03-02T14:09:29;98844.91;;;16.71
82297;BMP280;71899;51.992;8.648;2024-03-02T14:11:56;98854.16;;;16.75
82297;BMP280;71899;51.992;8.648;2024-03-02T14:14:21;98847.97;;;17.07
82297;BMP280;71899;51.992;8.648;2024-03-02T14:16:47;98850.34;;;16.78